Time;durP1;ratioP1;P1;durP2;ratioP2;P2;SDS_P1;SDS_P2;PMS_P1;PMS_P2;Temp;Humidity;BMP_temperature;BMP_pressure;BME280_temperature;BME280_humidity;BME280_pressure;Samples;Min_cycle;Max_cycle;Signal;HPM_P1;HPM_P2
2022/06/04 00:00:47;;;;;;;;;;;;;;;21.84;46.85;101302.88;4954935;28;4242;-65
2022/06/04 00:03:14;;;;;;;;;;;;;;;21.82;46.85;101294.13;4959025;28;4435;-64
2022/06/04 00:05:41;;;;;;;;;;;;;;;21.84;46.88;101291.34;4959206;28;4362;-65
2022/06/04 00:08:07;;;;;;;;;;;;;;;21.83;46.81;101289.84;4960863;28;5221;-65
2022/06/04 00:16:22;;;;;;;;;;;;;;;21.82;46.62;101288.38;4959626;28;6202;-65
2022/06/04 00:18:49;;;;;;;;;;;;;;;21.81;46.69;101276.09;4964654;28;4402;-65
2022/06/04 00:21:20;;;;;;;;;;;;;;;21.83;46.66;101278.31;4961839;28;4179;-65
2022/06/04 00:23:46;;;;;;;;;;;;;;;21.81;46.70;101276.09;4959652;28;4084;-65
2022/06/04 00:26:15;;;;;;;;;;;;;;;21.81;46.92;101272.47;4959331;28;5330;-65
2022/06/04 00:28:42;;;;;;;;;;;;;;;21.81;46.77;101269.59;4953367;28;4362;-65
2022/06/04 00:31:08;;;;;;;;;;;;;;;21.81;47.02;101269.59;4959969;28;5274;-65
2022/06/04 00:33:34;;;;;;;;;;;;;;;21.80;46.91;101265.94;4961372;28;5222;-65
2022/06/04 00:36:01;;;;;;;;;;;;;;;21.79;46.85;101260.84;4960571;28;4236;-65
2022/06/04 00:38:28;;;;;;;;;;;;;;;21.80;46.98;101268.09;4965915;28;4185;-65
2022/06/04 00:41:07;;;;;;;;;;;;;;;21.82;46.79;101265.31;4956776;28;4187;-65
2022/06/04 00:43:50;;;;;;;;;;;;;;;21.82;46.76;101271.06;4956216;28;4150;-65
2022/06/04 00:46:47;;;;;;;;;;;;;;;21.81;46.94;101269.59;4953991;28;5341;-65
2022/06/04 00:49:15;;;;;;;;;;;;;;;21.80;46.95;101274.59;4954002;28;4174;-65
2022/06/04 00:51:42;;;;;;;;;;;;;;;21.80;46.78;101268.09;4956298;28;4225;-65
2022/06/04 00:54:08;;;;;;;;;;;;;;;21.81;46.96;101266.72;4956332;28;5340;-65
2022/06/04 00:56:34;;;;;;;;;;;;;;;21.81;46.77;101275.34;4954600;28;4261;-65
2022/06/04 00:59:21;;;;;;;;;;;;;;;21.80;46.97;101270.97;4961346;28;4572;-65
2022/06/04 01:01:53;;;;;;;;;;;;;;;21.79;46.86;101278.13;4954059;28;4216;-65
2022/06/04 01:04:48;;;;;;;;;;;;;;;21.79;46.99;101284.66;4951788;28;4433;-65
2022/06/04 01:07:18;;;;;;;;;;;;;;;21.79;46.77;101287.53;4960856;28;4202;-65
2022/06/04 01:09:48;;;;;;;;;;;;;;;21.78;46.82;101283.13;4956825;28;4539;-65
2022/06/04 01:12:22;;;;;;;;;;;;;;;21.79;47.03;101283.91;4951117;28;4093;-65
2022/06/04 01:15:02;;;;;;;;;;;;;;;21.78;46.90;101279.50;4953947;28;4417;-65
2022/06/04 01:17:45;;;;;;;;;;;;;;;21.77;47.14;101275.91;4964245;28;4227;-65
2022/06/04 01:20:15;;;;;;;;;;;;;;;21.77;47.00;101280.91;4950673;28;5098;-65
2022/06/04 01:23:04;;;;;;;;;;;;;;;21.77;46.88;101275.16;4960375;28;4281;-65
2022/06/04 01:25:48;;;;;;;;;;;;;;;21.77;47.04;101270.13;4965483;28;4953;-65
2022/06/04 01:28:16;;;;;;;;;;;;;;;21.79;47.07;101270.22;4956261;28;4037;-65
2022/06/04 01:30:43;;;;;;;;;;;;;;;21.77;47.01;101269.41;4950664;28;4199;-65
2022/06/04 01:33:15;;;;;;;;;;;;;;;21.76;46.91;101268.63;4951512;28;4155;-65
2022/06/04 01:35:42;;;;;;;;;;;;;;;21.76;46.93;101268.63;4951742;28;5412;-65
2022/06/04 01:38:14;;;;;;;;;;;;;;;21.76;47.08;101268.63;4959582;28;5258;-65
2022/06/04 01:41:05;;;;;;;;;;;;;;;21.75;46.89;101267.16;4963971;28;5390;-65
2022/06/04 01:43:39;;;;;;;;;;;;;;;21.73;47.11;101262.03;4964450;28;4156;-65
2022/06/04 01:46:08;;;;;;;;;;;;;;;21.73;47.13;101262.03;4962910;28;4422;-65
2022/06/04 01:48:34;;;;;;;;;;;;;;;21.74;46.94;101263.53;4965005;28;4219;-65
2022/06/04 01:51:03;;;;;;;;;;;;;;;21.74;47.04;101260.66;4957966;28;4930;-65
2022/06/04 01:53:30;;;;;;;;;;;;;;;21.75;47.10;101262.13;4961737;28;4274;-65
2022/06/04 01:55:58;;;;;;;;;;;;;;;21.74;47.04;101266.41;4956740;28;4089;-65
2022/06/04 01:58:29;;;;;;;;;;;;;;;21.74;46.89;101272.19;4951979;28;5199;-65
2022/06/04 02:00:57;;;;;;;;;;;;;;;21.72;46.96;101269.19;4954002;28;4414;-65
2022/06/04 02:03:29;;;;;;;;;;;;;;;21.73;46.93;101259.13;4961485;28;5423;-65
2022/06/04 02:05:58;;;;;;;;;;;;;;;21.73;47.01;101258.41;4957916;28;4236;-65
2022/06/04 02:08:26;;;;;;;;;;;;;;;21.72;46.94;101257.66;4954826;28;5593;-65
2022/06/04 02:10:58;;;;;;;;;;;;;;;21.70;47.17;101263.34;4953238;28;4222;-65
2022/06/04 02:13:24;;;;;;;;;;;;;;;21.72;46.97;101260.56;4957922;28;4239;-65
2022/06/04 02:15:54;;;;;;;;;;;;;;;21.73;46.95;101262.03;4955802;28;4418;-65
2022/06/04 02:18:21;;;;;;;;;;;;;;;21.72;47.15;101263.44;4955078;28;4565;-65
2022/06/04 02:20:47;;;;;;;;;;;;;;;21.72;46.91;101274.22;4956803;28;5306;-65
2022/06/04 02:23:13;;;;;;;;;;;;;;;21.71;47.23;101267.69;4956398;28;4235;-65
2022/06/04 02:25:40;;;;;;;;;;;;;;;21.70;47.14;101269.09;4962904;28;4166;-65
2022/06/04 02:28:06;;;;;;;;;;;;;;;21.70;47.17;101266.22;4949585;28;4039;-65
2022/06/04 02:30:37;;;;;;;;;;;;;;;21.71;46.86;101272.72;4960029;28;4257;-65
2022/06/04 02:33:12;;;;;;;;;;;;;;;21.70;47.23;101257.56;4951647;28;4084;-65
2022/06/04 02:35:51;;;;;;;;;;;;;;;21.70;47.29;101263.34;4957256;28;4298;-65
2022/06/04 02:38:39;;;;;;;;;;;;;;;21.71;47.17;101267.69;4952923;28;4195;-67
2022/06/04 02:41:11;;;;;;;;;;;;;;;21.70;47.21;101271.25;4952945;28;4173;-68
2022/06/04 02:43:43;;;;;;;;;;;;;;;21.71;47.06;101276.34;4958182;28;4272;-67
2022/06/04 02:46:13;;;;;;;;;;;;;;;21.69;47.30;101270.50;4955339;28;4219;-67
2022/06/04 02:48:40;;;;;;;;;;;;;;;21.68;47.13;101271.88;4966027;28;4238;-65
2022/06/04 02:51:27;;;;;;;;;;;;;;;21.70;47.08;101271.25;4950047;28;4086;-64
2022/06/04 02:53:53;;;;;;;;;;;;;;;21.69;47.07;101270.50;4952237;28;4262;-64
2022/06/04 02:56:21;;;;;;;;;;;;;;;21.69;47.29;101273.38;4948071;28;4280;-64
2022/06/04 02:58:48;;;;;;;;;;;;;;;21.69;47.11;101276.25;4939167;28;4203;-65
2022/06/04 03:01:15;;;;;;;;;;;;;;;21.69;47.22;101282.03;4950411;28;4363;-64
2022/06/04 03:03:41;;;;;;;;;;;;;;;21.69;47.13;101287.03;4942009;28;4194;-64
2022/06/04 03:06:08;;;;;;;;;;;;;;;21.67;47.24;101290.56;4952569;28;4304;-65
2022/06/04 03:08:35;;;;;;;;;;;;;;;21.67;47.24;101290.56;4955396;28;4287;-65
2022/06/04 03:11:02;;;;;;;;;;;;;;;21.68;47.00;101280.53;4960080;28;4158;-64
2022/06/04 03:13:29;;;;;;;;;;;;;;;21.66;47.09;101277.53;4953065;28;4678;-64
2022/06/04 03:15:56;;;;;;;;;;;;;;;21.67;47.27;101281.94;4953792;28;4242;-65
2022/06/04 03:18:22;;;;;;;;;;;;;;;21.67;47.29;101279.06;4955292;28;4078;-64
2022/06/04 03:20:49;;;;;;;;;;;;;;;21.67;47.05;101284.03;4950061;28;5369;-65
2022/06/04 03:23:15;;;;;;;;;;;;;;;21.67;47.08;101284.81;4952707;28;4225;-64
2022/06/04 03:25:41;;;;;;;;;;;;;;;21.69;47.19;101282.03;4955253;28;4200;-65
2022/06/04 03:28:08;;;;;;;;;;;;;;;21.72;47.26;101280.00;4954892;28;5258;-66
2022/06/04 03:30:35;;;;;;;;;;;;;;;21.73;47.17;101287.97;4959001;28;5260;-65
2022/06/04 03:33:01;;;;;;;;;;;;;;;21.74;47.19;101289.47;4950674;28;5319;-65
2022/06/04 03:35:28;;;;;;;;;;;;;;;21.73;47.03;101293.00;4953547;28;4273;-65
2022/06/04 03:37:54;;;;;;;;;;;;;;;21.70;47.29;101303.69;4959630;28;5351;-65
2022/06/04 03:40:21;;;;;;;;;;;;;;;21.68;47.18;101297.81;4954348;28;4173;-65
2022/06/04 03:42:47;;;;;;;;;;;;;;;21.68;47.06;101297.81;4960553;28;4353;-66
2022/06/04 03:45:14;;;;;;;;;;;;;;;21.67;47.22;101307.88;4959014;28;4244;-65
2022/06/04 03:47:40;;;;;;;;;;;;;;;21.67;47.09;101302.09;4961068;28;4196;-65
2022/06/04 03:50:08;;;;;;;;;;;;;;;21.69;47.23;101324.50;4960074;28;5198;-65
2022/06/04 03:52:34;;;;;;;;;;;;;;;21.68;47.15;101332.41;4960048;28;4098;-66
2022/06/04 03:55:01;;;;;;;;;;;;;;;21.66;47.35;101329.44;4956954;28;4082;-65
2022/06/04 04:00:18;;;;;;;;;;;;;;;21.67;47.43;101312.88;4959072;28;5233;-65
2022/06/04 04:02:45;;;;;;;;;;;;;;;21.65;47.26;101313.53;4960139;28;3987;-66
2022/06/04 04:05:13;;;;;;;;;;;;;;;21.66;47.29;101311.41;4961796;28;4252;-65
2022/06/04 04:07:39;;;;;;;;;;;;;;;21.67;47.14;101313.63;4962347;28;4198;-65
2022/06/04 04:10:05;;;;;;;;;;;;;;;21.67;47.31;101318.63;4955904;28;4184;-65
2022/06/04 04:12:32;;;;;;;;;;;;;;;21.67;47.22;101313.63;4953940;28;4167;-65
2022/06/04 04:14:58;;;;;;;;;;;;;;;21.66;47.24;101317.91;4959568;28;4251;-67
2022/06/04 04:17:25;;;;;;;;;;;;;;;21.67;47.29;101318.63;4963079;28;4564;-67
2022/06/04 04:19:51;;;;;;;;;;;;;;;21.65;47.25;101321.44;4960851;28;4671;-67
2022/06/04 04:22:18;;;;;;;;;;;;;;;21.66;47.28;101322.91;4965088;28;4122;-68
2022/06/04 04:24:44;;;;;;;;;;;;;;;21.66;47.24;101328.69;4961677;28;4244;-67
2022/06/04 04:27:14;;;;;;;;;;;;;;;21.65;47.22;101316.41;4963814;28;4267;-67
2022/06/04 04:29:41;;;;;;;;;;;;;;;21.65;47.46;101316.41;4958398;28;4169;-67
2022/06/04 04:32:07;;;;;;;;;;;;;;;21.65;47.27;101310.66;4955481;28;4363;-66
2022/06/04 04:34:33;;;;;;;;;;;;;;;21.65;47.43;101312.81;4954510;28;4157;-66
2022/06/04 04:37:00;;;;;;;;;;;;;;;21.66;47.25;101312.13;4956032;28;4379;-66
2022/06/04 04:39:26;;;;;;;;;;;;;;;21.67;47.17;101313.63;4963674;28;5484;-66
2022/06/04 04:41:53;;;;;;;;;;;;;;;21.66;47.21;101312.13;4958484;28;4315;-66
2022/06/04 04:44:19;;;;;;;;;;;;;;;21.66;47.24;101317.91;4961550;28;4105;-66
2022/06/04 04:46:46;;;;;;;;;;;;;;;21.65;47.46;101319.31;4959748;28;5220;-65
2022/06/04 04:49:12;;;;;;;;;;;;;;;21.66;47.28;101320.78;4959652;28;4240;-66
2022/06/04 04:51:39;;;;;;;;;;;;;;;21.66;47.21;101323.66;4959382;28;5315;-66
2022/06/04 04:54:05;;;;;;;;;;;;;;;21.64;47.31;101317.78;4959186;28;4189;-65
2022/06/04 04:56:31;;;;;;;;;;;;;;;21.64;47.24;101323.56;4958399;28;5284;-66
2022/06/04 04:58:58;;;;;;;;;;;;;;;21.65;47.07;101330.81;4957549;28;4333;-66
2022/06/04 05:01:25;;;;;;;;;;;;;;;21.65;47.31;101327.94;4958198;28;5318;-65
2022/06/04 05:03:51;;;;;;;;;;;;;;;21.64;47.22;101329.31;4960086;28;5172;-68
2022/06/04 05:06:24;;;;;;;;;;;;;;;21.65;47.27;101333.72;4965098;28;4181;-67
2022/06/04 05:08:52;;;;;;;;;;;;;;;21.65;47.16;101333.72;4960722;28;4231;-67
2022/06/04 05:11:20;;;;;;;;;;;;;;;21.66;47.15;101340.97;4961764;28;4303;-67
2022/06/04 05:13:49;;;;;;;;;;;;;;;21.66;47.32;101337.34;4958147;28;5283;-65
2022/06/04 05:16:19;;;;;;;;;;;;;;;21.65;47.14;101339.47;4962975;28;4294;-65
2022/06/04 05:18:46;;;;;;;;;;;;;;;21.64;47.44;101332.22;4958918;28;4214;-65
2022/06/04 05:21:20;;;;;;;;;;;;;;;21.65;47.41;101330.81;4959783;28;4188;-65
2022/06/04 05:23:46;;;;;;;;;;;;;;;21.65;47.36;101330.09;4963079;28;4167;-65
2022/06/04 05:26:12;;;;;;;;;;;;;;;21.66;47.22;101329.44;4959691;28;4250;-65
2022/06/04 05:28:39;;;;;;;;;;;;;;;21.64;47.41;101332.22;4956727;28;4430;-65
2022/06/04 05:31:05;;;;;;;;;;;;;;;21.64;47.28;101326.44;4950668;28;5583;-65
2022/06/04 05:33:32;;;;;;;;;;;;;;;21.64;47.14;101317.78;4961873;28;4230;-65
2022/06/04 05:35:58;;;;;;;;;;;;;;;21.63;47.22;101330.72;4960256;28;4264;-65
2022/06/04 05:38:25;;;;;;;;;;;;;;;21.63;47.19;101330.00;4959288;28;4233;-65
2022/06/04 05:40:57;;;;;;;;;;;;;;;21.63;47.27;101330.72;4951504;28;4134;-65
2022/06/04 05:43:23;;;;;;;;;;;;;;;21.64;47.18;101331.47;4950449;28;4237;-67
2022/06/04 05:45:57;;;;;;;;;;;;;;;21.64;47.22;101326.44;4952260;28;5342;-67
2022/06/04 05:48:23;;;;;;;;;;;;;;;21.63;47.17;101333.59;4957423;28;4250;-67
2022/06/04 05:50:50;;;;;;;;;;;;;;;21.64;47.17;101334.34;4956284;28;5448;-68
2022/06/04 05:53:16;;;;;;;;;;;;;;;21.64;47.18;101337.22;4960231;28;4156;-68
2022/06/04 05:55:43;;;;;;;;;;;;;;;21.65;47.32;101333.72;4952880;28;4305;-66
2022/06/04 05:58:09;;;;;;;;;;;;;;;21.63;47.43;101348.03;4957504;28;4178;-66
2022/06/04 06:00:35;;;;;;;;;;;;;;;21.61;47.31;101353.69;4959467;28;4141;-65
2022/06/04 06:03:02;;;;;;;;;;;;;;;21.61;47.39;101350.81;4955648;28;4244;-66
2022/06/04 06:05:28;;;;;;;;;;;;;;;21.63;47.25;101353.78;4955487;28;4084;-66
2022/06/04 06:07:54;;;;;;;;;;;;;;;21.62;46.82;101358.03;4963081;28;5232;-67
2022/06/04 06:10:21;;;;;;;;;;;;;;;21.63;46.68;101358.81;4960914;28;5456;-66
2022/06/04 06:12:48;;;;;;;;;;;;;;;21.66;46.63;101358.25;4954472;28;4372;-67
2022/06/04 06:15:14;;;;;;;;;;;;;;;21.90;50.20;101363.72;4964051;28;4268;-69
2022/06/04 06:17:41;;;;;;;;;;;;;;;22.12;47.28;101361.88;4965261;28;4228;-69
2022/06/04 06:20:08;;;;;;;;;;;;;;;22.10;46.29;101361.78;4964057;28;6364;-71
2022/06/04 06:22:35;;;;;;;;;;;;;;;21.98;47.84;101361.22;4965924;28;5113;-72
2022/06/04 06:25:05;;;;;;;;;;;;;;;22.11;47.18;101363.28;4961443;28;4204;-67
2022/06/04 06:27:31;;;;;;;;;;;;;;;22.10;47.04;101369.69;4962685;28;4076;-71
2022/06/04 06:29:58;;;;;;;;;;;;;;;22.21;47.33;101365.16;4964492;28;4225;-78
2022/06/04 06:32:25;;;;;;;;;;;;;;;22.24;47.36;101367.53;4962867;28;4248;-75
2022/06/04 06:34:51;;;;;;;;;;;;;;;22.25;47.48;101365.38;4963189;28;4063;-72
2022/06/04 06:37:17;;;;;;;;;;;;;;;22.11;46.93;101371.94;4967164;28;4252;-68
2022/06/04 06:39:44;;;;;;;;;;;;;;;22.23;47.21;101371.78;4972094;28;5278;-67
2022/06/04 06:42:10;;;;;;;;;;;;;;;22.35;46.92;101365.84;4967650;28;4263;-67
2022/06/04 06:44:49;;;;;;;;;;;;;;;22.41;46.66;101371.91;4980929;28;4216;-69
2022/06/04 06:47:15;;;;;;;;;;;;;;;22.49;46.80;101380.16;4966637;28;4301;-69
2022/06/04 06:49:42;;;;;;;;;;;;;;;22.53;46.69;101380.38;4963775;28;4259;-69
2022/06/04 06:52:10;;;;;;;;;;;;;;;22.42;46.31;101387.06;4964772;28;4323;-69
2022/06/04 06:54:37;;;;;;;;;;;;;;;22.40;46.62;101395.63;4966664;28;4071;-69
2022/06/04 06:57:04;;;;;;;;;;;;;;;22.44;46.73;101390.78;4965444;28;5137;-70
2022/06/04 06:59:31;;;;;;;;;;;;;;;22.42;46.42;101396.47;4967644;28;4399;-71
2022/06/04 07:01:57;;;;;;;;;;;;;;;22.26;46.79;101392.81;4966583;28;4140;-74
2022/06/04 07:04:25;;;;;;;;;;;;;;;22.16;46.74;101405.34;4965129;28;4169;-73
2022/06/04 07:06:53;;;;;;;;;;;;;;;22.17;46.92;101394.53;4965854;28;4284;-72
2022/06/04 07:09:20;;;;;;;;;;;;;;;22.15;47.05;101394.44;4967781;28;4572;-72
2022/06/04 07:11:47;;;;;;;;;;;;;;;22.15;46.92;101409.63;4962009;28;4197;-76
2022/06/04 07:14:13;;;;;;;;;;;;;;;22.12;46.96;101413.78;4964471;28;4351;-70
2022/06/04 07:16:39;;;;;;;;;;;;;;;22.13;47.04;101409.53;4965023;28;4245;-72
2022/06/04 07:19:34;;;;;;;;;;;;;;;22.10;46.63;101407.94;4952751;28;5272;-71
2022/06/04 07:22:28;;;;;;;;;;;;;;;22.10;46.83;101412.97;4943825;28;5866;-72
2022/06/04 07:24:55;;;;;;;;;;;;;;;22.10;46.92;101419.47;4970228;28;4218;-71
2022/06/04 07:27:21;;;;;;;;;;;;;;;22.09;46.96;101420.88;4968667;28;4627;-72
2022/06/04 07:29:47;;;;;;;;;;;;;;;22.07;47.19;101423.66;4968528;28;4170;-71
2022/06/04 07:32:14;;;;;;;;;;;;;;;22.07;47.28;101429.41;4969829;28;4211;-72
2022/06/04 07:34:40;;;;;;;;;;;;;;;22.07;47.05;101428.69;4963586;28;5291;-71
2022/06/04 07:37:07;;;;;;;;;;;;;;;22.07;47.28;101429.41;4966366;28;5336;-71
2022/06/04 07:39:33;;;;;;;;;;;;;;;22.07;47.19;101425.78;4965810;28;4253;-72
2022/06/04 07:42:00;;;;;;;;;;;;;;;22.08;47.18;101435.94;4966256;28;5660;-72
2022/06/04 07:44:26;;;;;;;;;;;;;;;22.06;47.05;101439.47;4968000;28;4669;-71
2022/06/04 07:46:53;;;;;;;;;;;;;;;22.05;47.25;101437.97;4966254;28;4469;-71
2022/06/04 07:49:20;;;;;;;;;;;;;;;22.06;47.12;101438.72;4965116;28;4601;-72
2022/06/04 07:51:46;;;;;;;;;;;;;;;22.04;46.87;101430.72;4968431;28;5236;-71
2022/06/04 07:54:14;;;;;;;;;;;;;;;22.06;46.58;101439.47;4965845;28;4354;-71
2022/06/04 07:56:40;;;;;;;;;;;;;;;22.10;46.62;101447.56;4961389;28;4197;-71
2022/06/04 07:59:07;;;;;;;;;;;;;;;22.11;46.27;101446.94;4961554;28;4575;-71
2022/06/04 08:01:33;;;;;;;;;;;;;;;22.12;46.35;101448.41;4961426;28;4166;-71
2022/06/04 08:04:00;;;;;;;;;;;;;;;22.09;46.34;101446.81;4965709;28;4587;-71
2022/06/04 08:06:26;;;;;;;;;;;;;;;22.08;46.69;101451.13;4963960;28;7232;-71
2022/06/04 08:08:57;;;;;;;;;;;;;;;22.08;46.63;101453.22;4962995;28;5688;-71
2022/06/04 08:11:33;;;;;;;;;;;;;;;22.07;46.71;101455.38;4966955;28;4088;-71
2022/06/04 08:14:05;;;;;;;;;;;;;;;22.06;46.53;101453.13;4963131;28;4615;-70
2022/06/04 08:16:32;;;;;;;;;;;;;;;22.03;46.58;101452.28;4965895;28;4122;-69
2022/06/04 08:18:58;;;;;;;;;;;;;;;22.06;46.55;101462.56;4961181;28;5792;-68
2022/06/04 08:21:25;;;;;;;;;;;;;;;22.07;46.45;101464.03;4965763;28;5847;-68
2022/06/04 08:23:51;;;;;;;;;;;;;;;22.07;46.62;101455.38;4966315;28;5655;-69
2022/06/04 08:26:17;;;;;;;;;;;;;;;22.06;46.85;101456.78;4967948;28;5229;-68
2022/06/04 08:28:44;;;;;;;;;;;;;;;22.06;46.76;101459.66;4967962;28;5353;-70
2022/06/04 08:31:11;;;;;;;;;;;;;;;22.06;46.96;101451.00;4967171;28;4130;-68
2022/06/04 08:33:37;;;;;;;;;;;;;;;22.06;47.12;101451.00;4961634;28;4113;-70
2022/06/04 08:36:05;;;;;;;;;;;;;;;22.05;46.91;101443.75;4968131;28;4181;-71
2022/06/04 08:38:31;;;;;;;;;;;;;;;22.05;47.17;101448.75;4968566;28;4376;-70
2022/06/04 08:40:58;;;;;;;;;;;;;;;22.05;46.95;101445.88;4959026;28;4138;-69
2022/06/04 08:43:33;;;;;;;;;;;;;;;22.04;47.03;101450.91;4963887;28;4213;-70
2022/06/04 08:46:01;;;;;;;;;;;;;;;22.04;46.93;101453.06;4967837;28;4744;-69
2022/06/04 08:48:31;;;;;;;;;;;;;;;22.04;47.00;101450.19;4964698;28;4850;-69
2022/06/04 08:50:58;;;;;;;;;;;;;;;22.04;46.94;101453.78;4966988;28;5339;-70
2022/06/04 08:53:25;;;;;;;;;;;;;;;22.03;46.93;101452.28;4969359;28;4169;-69
2022/06/04 08:59:04;;;;;;;;;;;;;;;22.04;47.10;101447.28;4967464;28;4245;-69
2022/06/04 09:01:31;;;;;;;;;;;;;;;22.03;47.17;101449.41;4968493;28;4225;-70
2022/06/04 09:03:58;;;;;;;;;;;;;;;22.04;47.15;101453.06;4957185;28;5515;-70
2022/06/04 09:06:28;;;;;;;;;;;;;;;22.04;47.12;101453.06;4967817;28;4272;-70
2022/06/04 09:08:59;;;;;;;;;;;;;;;22.04;47.18;101453.78;4957993;28;4488;-69
2022/06/04 09:11:45;;;;;;;;;;;;;;;22.03;47.16;101452.28;4961186;28;3950;-69
2022/06/04 09:14:16;;;;;;;;;;;;;;;22.04;47.06;101453.78;4962333;28;4027;-70
2022/06/04 09:16:57;;;;;;;;;;;;;;;22.04;46.93;101468.22;4961762;28;4095;-69
2022/06/04 09:19:24;;;;;;;;;;;;;;;22.04;46.98;101465.34;4963738;28;4556;-69
2022/06/04 09:21:51;;;;;;;;;;;;;;;22.03;46.99;101458.06;4964280;28;4636;-70
2022/06/04 09:24:17;;;;;;;;;;;;;;;22.03;46.95;101463.81;4957985;28;4968;-69
2022/06/04 09:26:50;;;;;;;;;;;;;;;22.04;46.80;101465.34;4964637;28;4154;-70
2022/06/04 09:29:25;;;;;;;;;;;;;;;22.03;46.95;101469.59;4966871;28;5683;-70
2022/06/04 09:32:03;;;;;;;;;;;;;;;22.04;47.07;101476.88;4962860;28;5493;-70
2022/06/04 09:34:30;;;;;;;;;;;;;;;22.03;46.71;101478.25;4964648;28;4258;-70
2022/06/04 09:36:56;;;;;;;;;;;;;;;22.03;47.04;101463.81;4965688;28;4244;-70
2022/06/04 09:39:30;;;;;;;;;;;;;;;22.02;47.08;101476.75;4957194;28;4079;-70
2022/06/04 09:41:58;;;;;;;;;;;;;;;22.03;46.89;101486.16;4964369;28;4189;-70
2022/06/04 09:44:24;;;;;;;;;;;;;;;22.03;47.07;101484.00;4966425;28;4091;-70
2022/06/04 09:46:55;;;;;;;;;;;;;;;22.03;47.07;101489.78;4963305;28;5492;-69
2022/06/04 09:49:24;;;;;;;;;;;;;;;22.03;47.05;101491.94;4957944;28;4060;-70
2022/06/04 09:51:51;;;;;;;;;;;;;;;22.05;46.86;101497.78;4976068;28;4188;-70
2022/06/04 09:54:20;;;;;;;;;;;;;;;22.04;46.92;101499.19;4966936;28;4266;-68
2022/06/04 09:56:53;;;;;;;;;;;;;;;22.05;47.03;101500.69;4959650;28;4235;-68
2022/06/04 09:59:20;;;;;;;;;;;;;;;22.04;47.06;101505.72;4967848;28;4212;-68
2022/06/04 10:01:54;;;;;;;;;;;;;;;22.04;47.07;101499.19;4962421;28;5466;-68
2022/06/04 10:04:20;;;;;;;;;;;;;;;22.04;46.94;101508.59;4962385;28;4081;-68
2022/06/04 10:06:47;;;;;;;;;;;;;;;22.04;46.98;101504.97;4961908;28;4273;-68
2022/06/04 10:11:59;;;;;;;;;;;;;;;22.04;46.98;101510.75;4962316;28;4207;-70
2022/06/04 10:14:26;;;;;;;;;;;;;;;22.04;47.17;101508.59;4978647;28;4259;-69
2022/06/04 10:16:53;;;;;;;;;;;;;;;22.04;47.12;101507.84;4965837;28;4171;-70
2022/06/04 10:19:20;;;;;;;;;;;;;;;22.04;47.13;101502.81;4963061;28;4081;-69
2022/06/04 10:21:47;;;;;;;;;;;;;;;22.04;47.01;101499.94;4965080;28;4206;-70
2022/06/04 10:24:20;;;;;;;;;;;;;;;22.05;47.16;101497.78;4961433;28;4248;-72
2022/06/04 10:27:01;;;;;;;;;;;;;;;22.03;47.12;101491.94;4961607;28;4210;-69
2022/06/04 10:29:44;;;;;;;;;;;;;;;22.05;47.20;101489.88;4950438;28;5526;-68
2022/06/04 10:32:16;;;;;;;;;;;;;;;22.06;47.11;101481.97;4959817;28;4484;-70
2022/06/04 10:35:06;;;;;;;;;;;;;;;22.03;47.19;101478.25;4958084;28;4263;-70
2022/06/04 10:37:37;;;;;;;;;;;;;;;22.05;46.99;101484.13;4950912;28;5295;-68
2022/06/04 10:40:30;;;;;;;;;;;;;;;22.05;47.21;101489.88;4942063;28;4249;-68
2022/06/04 10:43:18;;;;;;;;;;;;;;;22.06;47.07;101476.97;4952801;28;4225;-69
2022/06/04 10:46:07;;;;;;;;;;;;;;;22.07;47.05;101463.28;4956589;28;4435;-68
2022/06/04 10:48:52;;;;;;;;;;;;;;;22.07;47.17;101466.91;4950366;28;4189;-69
2022/06/04 10:51:27;;;;;;;;;;;;;;;22.08;47.22;101464.78;4953746;28;4315;-69
2022/06/04 10:54:12;;;;;;;;;;;;;;;22.09;47.29;101460.50;4959370;28;5326;-70
2022/06/04 10:56:57;;;;;;;;;;;;;;;22.09;47.06;101455.47;4956675;28;4228;-68
2022/06/04 10:59:24;;;;;;;;;;;;;;;22.10;47.32;101456.22;4951905;28;5277;-69
2022/06/04 11:01:58;;;;;;;;;;;;;;;22.09;47.11;101461.25;4948333;28;4397;-69
2022/06/04 11:04:33;;;;;;;;;;;;;;;22.08;47.32;101456.88;4949348;28;4246;-70
2022/06/04 11:07:19;;;;;;;;;;;;;;;22.09;47.33;101464.13;4959549;28;4330;-70
2022/06/04 11:09:45;;;;;;;;;;;;;;;22.09;47.16;101467.00;4952390;28;4250;-70
2022/06/04 11:12:35;;;;;;;;;;;;;;;22.10;47.16;101470.63;4951846;28;4097;-68
2022/06/04 11:15:06;;;;;;;;;;;;;;;22.11;47.46;101464.22;4944011;28;4978;-68
2022/06/04 11:17:47;;;;;;;;;;;;;;;22.11;47.48;101463.50;4952100;28;4265;-68
2022/06/04 11:20:18;;;;;;;;;;;;;;;22.11;47.14;101463.50;4951231;28;4166;-68
2022/06/04 11:22:47;;;;;;;;;;;;;;;22.12;47.21;101459.94;4955111;28;4221;-68
2022/06/04 11:25:19;;;;;;;;;;;;;;;22.11;47.35;101455.59;4952986;28;5269;-68
2022/06/04 11:27:48;;;;;;;;;;;;;;;22.12;47.37;101454.19;4967584;28;5149;-68
2022/06/04 11:30:18;;;;;;;;;;;;;;;22.12;47.13;101454.19;4941054;28;5337;-67
2022/06/04 11:32:58;;;;;;;;;;;;;;;22.12;47.25;101448.41;4948397;28;4301;-68
2022/06/04 11:35:39;;;;;;;;;;;;;;;22.11;47.20;101458.47;4954574;28;4049;-68
2022/06/04 11:38:18;;;;;;;;;;;;;;;22.12;47.48;101459.19;4953232;28;4273;-68
2022/06/04 11:41:04;;;;;;;;;;;;;;;22.13;47.37;101467.22;4950605;28;5258;-66
2022/06/04 11:43:42;;;;;;;;;;;;;;;22.13;47.27;101460.72;4945137;28;4240;-68
2022/06/04 11:46:27;;;;;;;;;;;;;;;22.13;47.29;101473.00;4951082;28;4163;-68
2022/06/04 11:49:13;;;;;;;;;;;;;;;22.14;47.49;101470.84;4969879;28;5582;-68
2022/06/04 11:51:40;;;;;;;;;;;;;;;22.14;47.19;101480.22;4955592;28;4215;-68
2022/06/04 11:54:10;;;;;;;;;;;;;;;22.14;47.15;101480.22;4960707;28;4218;-69
2022/06/04 11:56:39;;;;;;;;;;;;;;;22.15;47.17;101478.09;4959560;28;4205;-68
2022/06/04 11:59:10;;;;;;;;;;;;;;;22.15;47.22;101481.75;4956452;28;4193;-68
2022/06/04 12:01:40;;;;;;;;;;;;;;;22.15;47.17;101481.75;4957129;28;4439;-68
2022/06/04 12:04:32;;;;;;;;;;;;;;;22.15;47.20;101475.22;4960409;28;4132;-68
2022/06/04 12:07:04;;;;;;;;;;;;;;;22.15;47.46;101475.97;4972192;28;5328;-68
2022/06/04 12:09:34;;;;;;;;;;;;;;;22.15;47.32;101475.97;4952618;28;4071;-68
2022/06/04 12:12:00;;;;;;;;;;;;;;;22.16;47.17;101479.59;4956482;28;5339;-68
2022/06/04 12:14:38;;;;;;;;;;;;;;;22.16;47.27;101471.69;4955958;28;4214;-68
2022/06/04 12:17:10;;;;;;;;;;;;;;;22.17;47.36;101460.88;4959537;28;4209;-67
2022/06/04 12:25:14;;;;;;;;;;;;;;;22.17;47.37;101483.97;4957497;28;4058;-68
2022/06/04 12:27:59;;;;;;;;;;;;;;;22.17;47.27;101478.97;4954460;28;4245;-68
2022/06/04 12:30:30;;;;;;;;;;;;;;;22.15;47.57;101475.97;4944704;28;4332;-67
2022/06/04 12:32:56;;;;;;;;;;;;;;;22.16;47.56;101480.34;4955126;28;4149;-68
2022/06/04 12:35:23;;;;;;;;;;;;;;;22.15;47.58;101478.88;4960179;28;4158;-68
2022/06/04 12:37:54;;;;;;;;;;;;;;;22.16;47.56;101473.84;4951591;28;4361;-68
2022/06/04 12:40:22;;;;;;;;;;;;;;;22.17;47.59;101483.97;4951785;28;4047;-67
2022/06/04 12:43:07;;;;;;;;;;;;;;;22.16;47.57;101480.34;4956680;28;5018;-67
2022/06/04 12:45:38;;;;;;;;;;;;;;;22.16;47.67;101482.47;4959378;28;4237;-67
2022/06/04 12:48:24;;;;;;;;;;;;;;;22.17;47.70;101475.31;4958782;28;4243;-67
2022/06/04 12:51:02;;;;;;;;;;;;;;;22.23;47.73;101480.66;4953375;28;4211;-69
2022/06/04 12:53:28;;;;;;;;;;;;;;;22.25;47.69;101489.44;4956550;28;4160;-69
2022/06/04 12:55:55;;;;;;;;;;;;;;;22.23;47.49;101489.31;4949864;28;4221;-69
2022/06/04 12:58:31;;;;;;;;;;;;;;;22.23;47.78;101492.94;4958600;28;4345;-69
2022/06/04 13:00:58;;;;;;;;;;;;;;;22.24;47.74;101482.16;4953970;28;4140;-68
2022/06/04 13:03:32;;;;;;;;;;;;;;;22.24;47.46;101493.69;4957585;28;4278;-68
2022/06/04 13:06:02;;;;;;;;;;;;;;;22.25;47.52;101489.44;4957992;28;4147;-68
2022/06/04 13:08:31;;;;;;;;;;;;;;;22.26;47.67;101485.13;4958883;28;5546;-69
2022/06/04 13:11:00;;;;;;;;;;;;;;;22.29;47.70;101493.25;4949153;28;4216;-66
2022/06/04 13:13:32;;;;;;;;;;;;;;;22.29;47.67;101493.25;4947735;28;4052;-66
2022/06/04 13:16:04;;;;;;;;;;;;;;;22.30;47.81;101494.00;4952704;28;4413;-66
2022/06/04 13:18:33;;;;;;;;;;;;;;;22.28;47.53;101488.13;4960655;28;5466;-66
2022/06/04 13:21:00;;;;;;;;;;;;;;;22.29;47.71;101492.50;4955692;28;4194;-66
2022/06/04 13:23:42;;;;;;;;;;;;;;;22.29;47.90;101495.41;4949773;28;4316;-66